Time;durP1;ratioP1;P1;durP2;ratioP2;P2;SDS_P1;SDS_P2;PMS_P1;PMS_P2;Temp;Humidity;BMP_temperature;BMP_pressure;BME280_temperature;BME280_humidity;BME280_pressure;Samples;Min_cycle;Max_cycle;Signal;HPM_P1;HPM_P2
2022/09/12 00:00:42;;;;;;;20.20;16.17;;;26.40;73.20;;;;;;5100145;28;20573;-71
2022/09/12 00:03:13;;;;;;;20.37;15.63;;;26.50;74.10;;;;;;5103650;28;20980;-72
2022/09/12 00:05:47;;;;;;;17.33;15.30;;;26.60;74.20;;;;;;5111396;28;20469;-69
2022/09/12 00:08:18;;;;;;;18.97;14.50;;;26.30;73.00;;;;;;5108671;28;20465;-69
2022/09/12 00:10:48;;;;;;;15.60;13.60;;;26.50;71.80;;;;;;5103914;28;20515;-76
2022/09/12 00:13:19;;;;;;;18.13;15.80;;;26.80;71.60;;;;;;5104514;28;20482;-73
2022/09/12 00:15:50;;;;;;;19.20;17.17;;;26.90;69.80;;;;;;5109065;28;20755;-71
2022/09/12 00:18:21;;;;;;;19.60;16.87;;;26.90;71.30;;;;;;5103213;28;20543;-74
2022/09/12 00:20:53;;;;;;;21.63;17.17;;;27.00;71.10;;;;;;5102551;28;20459;-71
2022/09/12 00:23:24;;;;;;;18.70;16.57;;;26.90;75.20;;;;;;5100832;28;20550;-71
2022/09/12 00:25:55;;;;;;;18.73;15.80;;;26.80;71.30;;;;;;5107107;28;20495;-73
2022/09/12 00:28:25;;;;;;;17.43;14.73;;;26.80;74.20;;;;;;5102626;28;20458;-73
2022/09/12 00:30:56;;;;;;;19.87;16.33;;;26.80;75.00;;;;;;5110453;28;20451;-74
2022/09/12 00:33:27;;;;;;;21.70;17.63;;;26.70;74.50;;;;;;5096823;28;20486;-71
2022/09/12 00:35:59;;;;;;;20.17;15.93;;;26.70;70.90;;;;;;5103658;28;20465;-73
2022/09/12 00:38:32;;;;;;;20.80;17.77;;;26.50;70.90;;;;;;5102875;28;20463;-77
2022/09/12 00:41:02;;;;;;;18.80;15.70;;;26.50;75.70;;;;;;5102575;28;20447;-74
2022/09/12 00:43:40;;;;;;;19.13;15.47;;;26.40;78.60;;;;;;5104255;28;20506;-74
2022/09/12 00:46:27;;;;;;;18.40;15.10;;;26.30;77.30;;;;;;5104127;28;20520;-73
2022/09/12 00:49:02;;;;;;;19.10;14.90;;;26.20;83.20;;;;;;5112504;28;20471;-73
2022/09/12 00:51:37;;;;;;;16.97;13.87;;;26.10;80.50;;;;;;5103327;28;20443;-71
2022/09/12 00:54:13;;;;;;;17.77;15.30;;;26.00;82.30;;;;;;5103272;28;20489;-71
2022/09/12 00:56:46;;;;;;;19.10;15.70;;;25.90;82.10;;;;;;5110004;28;20531;-72
2022/09/12 00:59:22;;;;;;;17.93;15.70;;;25.80;82.40;;;;;;5101551;28;20483;-72
2022/09/12 01:01:54;;;;;;;16.93;15.13;;;25.70;76.40;;;;;;5102591;28;20525;-69
2022/09/12 01:04:28;;;;;;;16.80;14.70;;;25.60;77.50;;;;;;5103908;28;20967;-71
2022/09/12 01:07:01;;;;;;;16.70;14.93;;;25.60;86.90;;;;;;5103101;28;20447;-70
2022/09/12 01:09:32;;;;;;;17.43;15.63;;;25.50;86.90;;;;;;5109011;28;20816;-75
2022/09/12 01:12:03;;;;;;;17.77;15.17;;;25.40;85.70;;;;;;5113381;28;20466;-73
2022/09/12 01:14:35;;;;;;;17.00;15.20;;;25.30;90.40;;;;;;5108190;28;20538;-72
2022/09/12 01:17:06;;;;;;;21.10;15.77;;;25.30;80.10;;;;;;5107091;28;20473;-70
2022/09/12 01:20:06;;;;;;;21.17;16.90;;;25.20;86.60;;;;;;5101817;28;20584;-69
2022/09/12 01:23:12;;;;;;;20.60;15.37;;;25.00;86.50;;;;;;5120397;28;20437;-70
2022/09/12 01:26:01;;;;;;;16.50;13.67;;;24.90;81.50;;;;;;5102814;28;20921;-71
2022/09/12 01:28:56;;;;;;;18.53;14.60;;;24.90;80.00;;;;;;5113753;28;20549;-70
2022/09/12 01:31:34;;;;;;;19.47;15.63;;;25.00;83.20;;;;;;5091532;28;21358;-68
2022/09/12 01:34:18;;;;;;;16.43;14.63;;;24.90;81.80;;;;;;5101354;28;20500;-72
2022/09/12 01:36:59;;;;;;;25.03;20.10;;;24.90;82.70;;;;;;5107703;28;20491;-69
2022/09/12 01:39:39;;;;;;;24.73;22.23;;;24.90;84.30;;;;;;5111941;28;20482;-71
2022/09/12 01:42:15;;;;;;;29.20;26.20;;;24.80;83.70;;;;;;5114646;28;20484;-71
2022/09/12 01:44:55;;;;;;;29.40;25.03;;;24.70;86.70;;;;;;5107520;28;20524;-71
2022/09/12 01:47:33;;;;;;;35.00;30.83;;;24.70;85.80;;;;;;5102119;28;20454;-71
2022/09/12 01:50:08;;;;;;;69.23;62.53;;;24.60;88.30;;;;;;5102281;28;20496;-71
2022/09/12 01:52:43;;;;;;;58.00;52.00;;;24.40;90.50;;;;;;5104449;28;20466;-71
2022/09/12 01:55:19;;;;;;;32.07;28.67;;;24.20;90.60;;;;;;5111375;28;20484;-70
2022/09/12 01:57:57;;;;;;;39.50;35.40;;;24.20;90.20;;;;;;5110448;28;20473;-71
2022/09/12 02:00:28;;;;;;;29.30;26.10;;;24.10;90.20;;;;;;5102965;28;20462;-71
2022/09/12 02:03:05;;;;;;;33.00;26.03;;;24.00;91.40;;;;;;5101004;28;20459;-72
2022/09/12 02:05:38;;;;;;;24.10;21.50;;;24.00;91.40;;;;;;5101109;28;20823;-69
2022/09/12 02:08:13;;;;;;;22.83;18.43;;;23.90;92.80;;;;;;5103481;28;20850;-69
2022/09/12 02:10:50;;;;;;;21.57;18.10;;;23.80;90.90;;;;;;5100044;28;20474;-70
2022/09/12 02:13:26;;;;;;;21.70;18.53;;;23.80;90.90;;;;;;5100010;28;20535;-70
2022/09/12 02:16:04;;;;;;;26.40;19.43;;;23.90;90.90;;;;;;5100175;28;20536;-69
2022/09/12 02:18:39;;;;;;;21.40;17.20;;;23.80;91.40;;;;;;5101353;28;20565;-68
2022/09/12 02:21:11;;;;;;;22.57;17.43;;;23.70;91.50;;;;;;5090872;28;20490;-69
2022/09/12 02:23:46;;;;;;;27.33;19.47;;;23.60;91.90;;;;;;5101670;28;20496;-68
2022/09/12 02:26:22;;;;;;;19.60;17.47;;;23.50;92.80;;;;;;5105299;28;20495;-66
2022/09/12 02:28:53;;;;;;;22.60;18.13;;;23.40;94.50;;;;;;5101561;28;20446;-67
2022/09/12 02:31:29;;;;;;;20.43;16.13;;;23.40;94.70;;;;;;5100896;28;20455;-68
2022/09/12 02:34:11;;;;;;;19.57;17.00;;;23.20;94.50;;;;;;5100965;28;20585;-66
2022/09/12 02:36:50;;;;;;;21.10;16.90;;;23.20;95.70;;;;;;5107761;28;20535;-66
2022/09/12 02:39:21;;;;;;;20.83;16.87;;;23.10;96.00;;;;;;5106581;28;20449;-65
2022/09/12 02:41:55;;;;;;;17.00;14.27;;;23.10;96.50;;;;;;5120520;28;20453;-65
2022/09/12 02:44:27;;;;;;;18.93;15.43;;;23.10;96.70;;;;;;5121846;28;20515;-66
2022/09/12 02:47:03;;;;;;;19.03;15.70;;;23.20;96.50;;;;;;5114178;28;20504;-66
2022/09/12 02:49:35;;;;;;;20.40;14.70;;;23.20;96.30;;;;;;5110396;28;20438;-66
2022/09/12 02:52:06;;;;;;;19.00;14.97;;;23.20;96.60;;;;;;5121994;28;20446;-66
2022/09/12 02:54:38;;;;;;;20.47;14.47;;;23.20;96.70;;;;;;5119981;28;20548;-66
2022/09/12 02:57:17;;;;;;;17.87;13.80;;;23.10;97.30;;;;;;5099669;28;20522;-66
2022/09/12 02:59:56;;;;;;;15.33;12.47;;;23.00;97.90;;;;;;5102286;28;20472;-66
2022/09/12 03:02:33;;;;;;;16.10;12.57;;;22.90;98.70;;;;;;5104458;28;20461;-67
2022/09/12 03:05:27;;;;;;;23.87;14.80;;;22.90;99.10;;;;;;5104783;28;20450;-66
2022/09/12 03:08:12;;;;;;;15.83;11.70;;;22.90;99.50;;;;;;5107843;28;20860;-66
2022/09/12 03:11:06;;;;;;;18.67;13.63;;;22.80;99.90;;;;;;5105708;28;20458;-67
2022/09/12 03:13:47;;;;;;;15.30;13.40;;;22.60;99.90;;;;;;5103304;28;20459;-67
2022/09/12 03:16:25;;;;;;;16.40;12.47;;;22.60;99.90;;;;;;5114939;28;20469;-67
2022/09/12 03:19:05;;;;;;;16.00;11.70;;;22.60;99.90;;;;;;5121577;28;20541;-66
2022/09/12 03:21:46;;;;;;;16.03;13.23;;;22.40;99.90;;;;;;5118447;28;20469;-66
2022/09/12 03:24:22;;;;;;;17.57;12.20;;;22.40;99.90;;;;;;5114330;28;20449;-64
2022/09/12 03:26:58;;;;;;;13.07;11.50;;;22.40;99.90;;;;;;5110069;28;20454;-67
2022/09/12 03:29:30;;;;;;;14.60;12.20;;;22.30;99.90;;;;;;5115505;28;20816;-66
2022/09/12 03:32:00;;;;;;;17.63;13.17;;;22.30;99.90;;;;;;5103696;28;20462;-65
2022/09/12 03:34:31;;;;;;;17.80;13.73;;;22.20;99.90;;;;;;5109030;28;20466;-66
2022/09/12 03:37:04;;;;;;;15.20;11.80;;;22.20;99.90;;;;;;5105474;28;20450;-66
2022/09/12 03:39:35;;;;;;;15.60;11.83;;;22.20;99.90;;;;;;5105895;28;21307;-66
2022/09/12 03:42:06;;;;;;;15.10;11.90;;;22.10;99.90;;;;;;5103973;28;20978;-66
2022/09/12 03:44:37;;;;;;;16.00;12.60;;;22.10;99.90;;;;;;5124151;28;20450;-66
2022/09/12 03:47:07;;;;;;;15.63;11.40;;;22.10;99.90;;;;;;5110925;28;20442;-66
2022/09/12 03:49:40;;;;;;;15.63;12.00;;;22.00;99.90;;;;;;5111277;28;20521;-65
2022/09/12 03:52:12;;;;;;;17.60;12.60;;;22.00;99.90;;;;;;5109574;27;20454;-66
2022/09/12 03:54:43;;;;;;;13.13;11.67;;;22.00;99.90;;;;;;5104977;28;21157;-67
2022/09/12 03:57:14;;;;;;;12.90;10.87;;;22.00;99.90;;;;;;5111544;28;20450;-66
2022/09/12 03:59:45;;;;;;;15.50;12.93;;;22.10;99.90;;;;;;5105733;28;22042;-66
2022/09/12 04:02:16;;;;;;;15.03;11.63;;;22.10;99.90;;;;;;5105311;28;20451;-67
2022/09/12 04:04:47;;;;;;;17.20;12.43;;;22.00;99.90;;;;;;5104046;28;20462;-67
2022/09/12 04:07:20;;;;;;;14.17;11.70;;;22.00;99.90;;;;;;5108198;28;20442;-66
2022/09/12 04:09:51;;;;;;;13.43;11.07;;;21.90;99.90;;;;;;5102099;28;20496;-67
2022/09/12 04:12:22;;;;;;;16.13;12.23;;;22.00;99.90;;;;;;5103878;28;20830;-67
2022/09/12 04:14:53;;;;;;;16.83;12.20;;;22.00;99.90;;;;;;5092727;28;20525;-66
2022/09/12 04:17:23;;;;;;;13.83;10.80;;;21.90;99.90;;;;;;5101295;28;20516;-66
2022/09/12 04:19:55;;;;;;;16.53;12.23;;;21.90;99.90;;;;;;5105049;28;20450;-66
2022/09/12 04:22:28;;;;;;;14.13;11.80;;;21.80;99.90;;;;;;5109350;28;20535;-67
2022/09/12 04:24:59;;;;;;;15.70;12.77;;;21.60;99.90;;;;;;5103549;28;20458;-66
2022/09/12 04:27:30;;;;;;;12.50;11.20;;;21.60;99.90;;;;;;5109420;28;20550;-66
2022/09/12 04:30:02;;;;;;;14.33;11.77;;;21.50;99.90;;;;;;5104677;28;20545;-67
2022/09/12 04:32:33;;;;;;;15.03;11.83;;;21.40;99.90;;;;;;5123607;28;20412;-66
2022/09/12 04:35:04;;;;;;;16.47;11.77;;;21.40;99.90;;;;;;5114065;28;20508;-67
2022/09/12 04:37:36;;;;;;;16.13;12.03;;;21.30;99.90;;;;;;5107662;28;20459;-66
2022/09/12 04:40:08;;;;;;;16.83;12.27;;;21.30;99.90;;;;;;5104568;28;20458;-66
2022/09/12 04:42:39;;;;;;;17.30;11.80;;;21.30;99.90;;;;;;5110260;28;20465;-66
2022/09/12 04:45:11;;;;;;;13.73;11.07;;;21.20;99.90;;;;;;5113885;28;20466;-67
2022/09/12 04:47:42;;;;;;;14.43;11.57;;;21.10;99.90;;;;;;5105812;28;20740;-65
2022/09/12 04:50:13;;;;;;;14.93;11.10;;;21.00;99.90;;;;;;5101882;28;20512;-65
2022/09/12 04:52:51;;;;;;;17.37;11.70;;;21.10;99.90;;;;;;5101913;28;20950;-65
2022/09/12 04:55:24;;;;;;;16.00;11.13;;;21.00;99.90;;;;;;5100303;28;20586;-64
2022/09/12 04:57:54;;;;;;;13.20;10.60;;;20.90;99.90;;;;;;5112538;28;20462;-64
2022/09/12 05:00:25;;;;;;;12.87;9.73;;;21.00;99.90;;;;;;5100983;28;20453;-65
2022/09/12 05:02:56;;;;;;;15.47;11.23;;;21.00;99.90;;;;;;5094958;28;20457;-65
2022/09/12 05:05:27;;;;;;;14.63;11.07;;;20.90;99.90;;;;;;5104169;28;20466;-65
2022/09/12 05:07:59;;;;;;;13.23;9.57;;;20.90;99.90;;;;;;5109334;28;20458;-64
2022/09/12 05:10:30;;;;;;;12.93;9.70;;;20.80;99.90;;;;;;5102260;28;20489;-65
2022/09/12 05:13:01;;;;;;;11.50;9.17;;;20.70;99.90;;;;;;5103883;28;20531;-65
2022/09/12 05:15:31;;;;;;;14.07;10.43;;;20.70;99.90;;;;;;5103344;28;20469;-65
2022/09/12 05:18:02;;;;;;;12.47;10.37;;;20.60;99.90;;;;;;5101408;28;20485;-65
2022/09/12 05:20:34;;;;;;;12.90;9.97;;;20.50;99.90;;;;;;5105892;28;20458;-65
2022/09/12 05:23:07;;;;;;;11.47;10.23;;;20.50;99.90;;;;;;5103344;28;20481;-64
2022/09/12 05:25:38;;;;;;;15.10;9.57;;;20.50;99.90;;;;;;5092971;28;20818;-65
2022/09/12 05:28:08;;;;;;;14.87;10.30;;;20.50;99.90;;;;;;5101432;28;20516;-65
2022/09/12 05:30:39;;;;;;;11.47;9.37;;;20.40;99.90;;;;;;5115405;28;20455;-64
2022/09/12 05:33:10;;;;;;;13.40;9.37;;;20.40;99.90;;;;;;5104902;28;20462;-64
2022/09/12 05:35:41;;;;;;;11.30;8.80;;;20.40;99.90;;;;;;5105358;28;20489;-65
2022/09/12 05:38:14;;;;;;;11.63;9.07;;;20.50;99.90;;;;;;5100017;28;20455;-64
2022/09/12 05:40:44;;;;;;;11.80;8.83;;;20.50;99.90;;;;;;5113857;28;20529;-64
2022/09/12 05:43:15;;;;;;;13.60;10.40;;;20.40;99.90;;;;;;5110907;28;20462;-64
2022/09/12 05:45:46;;;;;;;16.50;9.07;;;20.20;99.90;;;;;;5101902;28;20542;-64
2022/09/12 05:48:17;;;;;;;13.87;9.20;;;20.10;99.90;;;;;;5100985;28;20806;-64
2022/09/12 05:50:48;;;;;;;13.73;9.53;;;20.10;99.90;;;;;;5109035;28;20804;-65
2022/09/12 05:53:20;;;;;;;11.50;9.80;;;20.00;99.90;;;;;;5101410;28;20764;-65
2022/09/12 05:55:51;;;;;;;11.50;9.23;;;20.00;99.90;;;;;;5115186;28;20993;-65
2022/09/12 05:58:21;;;;;;;10.67;9.13;;;20.00;99.90;;;;;;5108795;28;20421;-65
2022/09/12 06:00:52;;;;;;;14.40;9.83;;;20.00;99.90;;;;;;5097613;28;20442;-65
2022/09/12 06:03:23;;;;;;;13.00;8.80;;;20.00;99.90;;;;;;5102504;28;20442;-65
2022/09/12 06:05:54;;;;;;;13.23;9.47;;;20.00;99.90;;;;;;5113402;28;20428;-65
2022/09/12 06:08:26;;;;;;;11.50;9.83;;;20.00;99.90;;;;;;5119733;28;20446;-65
2022/09/12 06:11:01;;;;;;;11.87;8.60;;;20.00;99.90;;;;;;5115689;28;20541;-65
2022/09/12 06:13:33;;;;;;;11.83;8.90;;;20.00;99.90;;;;;;5105606;28;20416;-65
2022/09/12 06:16:05;;;;;;;10.87;9.30;;;19.90;99.90;;;;;;5098792;28;20464;-65
2022/09/12 06:18:37;;;;;;;10.07;8.60;;;19.90;99.90;;;;;;5111201;28;20547;-65
2022/09/12 06:21:09;;;;;;;10.60;8.47;;;19.80;99.90;;;;;;5100153;28;21038;-65
2022/09/12 06:23:44;;;;;;;12.80;9.13;;;19.80;99.90;;;;;;5101270;28;20566;-65
2022/09/12 06:26:16;;;;;;;16.30;9.23;;;19.80;99.90;;;;;;5098462;28;20491;-65
2022/09/12 06:28:47;;;;;;;10.37;8.93;;;19.80;99.90;;;;;;5106771;28;20433;-65
2022/09/12 06:31:20;;;;;;;10.90;8.50;;;19.90;99.90;;;;;;5111296;28;20425;-65
2022/09/12 06:33:53;;;;;;;12.67;8.00;;;19.80;99.90;;;;;;5101818;28;20533;-65
2022/09/12 06:36:26;;;;;;;13.57;9.80;;;19.70;99.90;;;;;;5104193;28;20460;-65
2022/09/12 06:38:59;;;;;;;12.83;9.57;;;19.70;99.90;;;;;;5108106;28;20458;-65
2022/09/12 06:41:31;;;;;;;12.13;9.00;;;19.80;99.90;;;;;;5102287;28;20830;-65
2022/09/12 06:44:03;;;;;;;14.23;8.90;;;19.90;99.90;;;;;;5113016;28;21145;-65
2022/09/12 06:46:34;;;;;;;13.63;9.33;;;19.90;99.90;;;;;;5107187;28;20465;-65
2022/09/12 06:49:05;;;;;;;11.63;9.20;;;19.80;99.90;;;;;;5101566;28;20466;-66
2022/09/12 06:51:36;;;;;;;13.27;9.57;;;19.70;99.90;;;;;;5094251;28;20468;-66
2022/09/12 06:54:09;;;;;;;9.97;8.63;;;19.70;99.90;;;;;;5109325;28;20458;-65
2022/09/12 06:56:40;;;;;;;13.80;9.53;;;19.70;99.90;;;;;;5110042;28;20556;-66
2022/09/12 06:59:11;;;;;;;11.40;9.80;;;19.80;99.90;;;;;;5105604;28;20540;-67
2022/09/12 07:01:42;;;;;;;14.60;9.57;;;19.80;99.90;;;;;;5099085;28;20449;-65
2022/09/12 07:04:13;;;;;;;13.73;8.40;;;19.80;99.90;;;;;;5104688;28;20524;-65
2022/09/12 07:06:44;;;;;;;13.17;9.67;;;19.80;99.90;;;;;;5107746;28;20533;-65
2022/09/12 07:09:17;;;;;;;11.90;9.30;;;19.80;99.90;;;;;;5111121;28;20496;-65
2022/09/12 07:11:48;;;;;;;16.57;9.30;;;19.80;99.90;;;;;;5098931;28;20500;-65
2022/09/12 07:14:18;;;;;;;13.30;9.90;;;19.80;99.90;;;;;;5108052;28;20450;-66
2022/09/12 07:16:49;;;;;;;13.83;9.50;;;19.80;99.90;;;;;;5107021;28;20490;-66
2022/09/12 07:19:20;;;;;;;13.10;9.30;;;19.80;99.90;;;;;;5113504;28;20485;-65
2022/09/12 07:21:51;;;;;;;11.10;9.17;;;19.80;99.90;;;;;;5100828;28;20460;-65
2022/09/12 07:24:29;;;;;;;11.00;9.10;;;19.80;99.90;;;;;;5113231;28;22108;-66
2022/09/12 07:26:59;;;;;;;12.23;9.47;;;19.80;99.90;;;;;;5096451;28;20462;-66
2022/09/12 07:29:30;;;;;;;11.60;9.40;;;19.80;99.90;;;;;;5107425;28;20443;-65
2022/09/12 07:32:06;;;;;;;12.80;9.30;;;19.80;99.90;;;;;;5106624;28;20932;-65
2022/09/12 07:34:37;;;;;;;11.73;8.60;;;19.90;99.90;;;;;;5102663;28;20459;-64
2022/09/12 07:37:08;;;;;;;11.80;9.57;;;19.90;99.90;;;;;;5099843;28;20489;-64
2022/09/12 07:39:40;;;;;;;11.33;9.00;;;19.90;99.90;;;;;;5122839;28;20491;-65
2022/09/12 07:42:12;;;;;;;12.43;9.87;;;19.70;99.90;;;;;;5114729;28;20438;-66
2022/09/12 07:44:43;;;;;;;12.17;9.57;;;19.70;99.90;;;;;;5105283;28;20458;-65
2022/09/12 07:47:14;;;;;;;14.53;9.70;;;19.60;99.90;;;;;;5108453;28;20458;-65
2022/09/12 07:49:44;;;;;;;15.30;9.13;;;19.70;99.90;;;;;;5116497;28;20432;-66
2022/09/12 07:52:15;;;;;;;13.07;9.90;;;19.70;99.90;;;;;;5105424;28;20487;-65
2022/09/12 07:54:48;;;;;;;11.80;9.40;;;19.70;99.90;;;;;;5109093;28;20591;-65
2022/09/12 07:57:19;;;;;;;12.10;10.00;;;19.60;99.90;;;;;;5116151;28;20509;-66
2022/09/12 07:59:50;;;;;;;13.00;9.30;;;19.70;99.90;;;;;;5113597;28;20599;-65
2022/09/12 08:02:22;;;;;;;13.73;9.00;;;19.80;99.90;;;;;;5107603;28;20522;-65
2022/09/12 08:04:53;;;;;;;14.10;9.90;;;19.80;99.90;;;;;;5105025;28;20433;-65
2022/09/12 08:07:23;;;;;;;13.77;8.23;;;19.70;99.90;;;;;;5108927;28;20462;-65
2022/09/12 08:09:56;;;;;;;10.40;9.00;;;19.70;99.90;;;;;;5113950;28;20453;-65
2022/09/12 08:12:28;;;;;;;14.53;10.20;;;19.60;99.90;;;;;;5107943;28;20866;-66
2022/09/12 08:14:58;;;;;;;15.33;9.47;;;19.60;99.90;;;;;;5120249;28;20436;-65
2022/09/12 08:17:29;;;;;;;13.00;10.40;;;19.50;99.90;;;;;;5102926;28;20527;-66
2022/09/12 08:20:00;;;;;;;12.43;9.33;;;19.60;99.90;;;;;;5117313;28;20465;-64
2022/09/12 08:22:32;;;;;;;13.23;9.57;;;19.60;99.90;;;;;;5110036;28;20466;-65
2022/09/12 08:25:05;;;;;;;10.60;9.10;;;19.50;99.90;;;;;;5113880;28;20458;-65
2022/09/12 08:27:36;;;;;;;12.50;9.00;;;19.40;99.90;;;;;;5101495;28;20512;-65
2022/09/12 08:30:08;;;;;;;11.60;9.00;;;19.30;99.90;;;;;;5103099;28;20490;-65
2022/09/12 08:32:39;;;;;;;11.50;9.90;;;19.30;99.90;;;;;;5103529;28;20463;-65
2022/09/12 08:35:10;;;;;;;12.10;9.30;;;19.20;99.90;;;;;;5102683;28;20438;-64
2022/09/12 08:37:42;;;;;;;11.10;8.67;;;19.10;99.90;;;;;;5103357;28;20468;-64
2022/09/12 08:40:18;;;;;;;13.57;9.37;;;19.10;99.90;;;;;;5116447;28;20470;-66
2022/09/12 08:42:59;;;;;;;13.93;10.07;;;19.10;99.90;;;;;;5117277;28;20485;-65
2022/09/12 08:45:35;;;;;;;13.57;9.73;;;19.10;99.90;;;;;;5104477;28;21052;-66
2022/09/12 08:48:07;;;;;;;13.83;9.90;;;19.00;99.90;;;;;;5117491;28;20437;-65
2022/09/12 08:50:38;;;;;;;12.77;9.20;;;19.00;99.90;;;;;;5105894;28;20468;-65
2022/09/12 08:53:14;;;;;;;10.40;8.93;;;18.90;99.90;;;;;;5106524;28;20553;-65
2022/09/12 08:55:53;;;;;;;11.30;8.87;;;18.80;99.90;;;;;;5115792;28;20473;-65
2022/09/12 08:58:26;;;;;;;15.07;9.37;;;18.90;99.90;;;;;;5102723;28;20570;-66
2022/09/12 09:01:03;;;;;;;13.60;9.20;;;18.80;99.90;;;;;;5094973;28;20906;-64
2022/09/12 09:04:04;;;;;;;13.50;9.60;;;18.80;99.90;;;;;;5112388;28;20450;-65
2022/09/12 09:06:58;;;;;;;12.07;8.30;;;18.80;99.90;;;;;;5106538;28;20541;-65
2022/09/12 09:09:43;;;;;;;12.30;8.73;;;18.80;99.90;;;;;;5104660;28;20441;-64
2022/09/12 09:12:22;;;;;;;12.60;9.20;;;18.80;99.90;;;;;;5110592;28;20450;-65
2022/09/12 09:15:08;;;;;;;13.90;8.63;;;18.80;99.90;;;;;;5103046;28;20433;-65
2022/09/12 09:17:42;;;;;;;11.27;8.20;;;18.80;99.90;;;;;;5103109;28;20548;-65
2022/09/12 09:20:21;;;;;;;12.13;8.90;;;18.80;99.90;;;;;;5102016;28;20819;-65
2022/09/12 09:22:56;;;;;;;12.30;9.40;;;18.80;99.90;;;;;;5116007;28;20459;-65
2022/09/12 09:25:43;;;;;;;15.03;9.23;;;18.80;99.90;;;;;;5104610;28;20451;-65
2022/09/12 09:28:19;;;;;;;11.33;8.70;;;18.70;99.90;;;;;;5091357;28;20429;-65
2022/09/12 09:30:51;;;;;;;15.67;9.20;;;18.60;99.90;;;;;;5101531;28;20463;-65
2022/09/12 09:33:25;;;;;;;12.60;9.07;;;18.50;99.90;;;;;;5109445;28;20463;-64
2022/09/12 09:36:06;;;;;;;13.07;9.50;;;18.60;99.90;;;;;;5103480;28;20459;-64
2022/09/12 09:38:47;;;;;;;11.70;9.10;;;18.60;99.90;;;;;;5110188;28;20487;-65
2022/09/12 09:41:32;;;;;;;10.10;8.60;;;18.60;99.90;;;;;;5106282;28;20453;-65
2022/09/12 09:44:05;;;;;;;13.97;9.80;;;18.60;99.90;;;;;;5109083;28;20565;-65
2022/09/12 09:46:37;;;;;;;11.07;8.20;;;18.50;99.90;;;;;;5104698;28;20473;-65
2022/09/12 09:49:11;;;;;;;12.57;9.10;;;18.50;99.90;;;;;;5105678;28;20497;-65
2022/09/12 09:51:43;;;;;;;13.03;9.47;;;18.50;99.90;;;;;;5110415;28;20457;-65
2022/09/12 09:54:20;;;;;;;9.73;8.70;;;18.50;99.90;;;;;;5104044;28;20526;-65
2022/09/12 09:56:51;;;;;;;14.83;8.30;;;18.40;99.90;;;;;;5115273;28;20509;-65
2022/09/12 09:59:31;;;;;;;13.90;9.60;;;18.40;99.90;;;;;;5104330;28;20564;-65
2022/09/12 10:02:22;;;;;;;14.13;9.77;;;18.50;99.90;;;;;;5109669;28;20432;-65
2022/09/12 10:04:57;;;;;;;12.37;8.90;;;18.50;99.90;;;;;;5109761;28;20432;-64
2022/09/12 10:07:28;;;;;;;12.90;9.23;;;18.50;99.90;;;;;;5108103;28;20498;-65
2022/09/12 10:10:16;;;;;;;12.97;9.27;;;18.50;99.90;;;;;;5098476;28;20436;-65
2022/09/12 10:12:47;;;;;;;13.20;9.33;;;18.40;99.90;;;;;;5104452;28;20536;-64
2022/09/12 10:15:21;;;;;;;12.53;9.07;;;18.40;99.90;;;;;;5111062;28;20460;-65
2022/09/12 10:17:53;;;;;;;14.47;10.23;;;18.40;99.90;;;;;;5105625;28;20518;-65
2022/09/12 10:20:35;;;;;;;12.63;10.20;;;18.40;99.90;;;;;;5106863;28;20463;-65
2022/09/12 10:23:24;;;;;;;13.90;9.47;;;18.20;99.90;;;;;;5113816;28;20431;-66
2022/09/12 10:25:58;;;;;;;15.30;8.80;;;18.20;99.90;;;;;;5103524;28;20569;-64
2022/09/12 10:28:36;;;;;;;10.40;8.60;;;18.20;99.90;;;;;;5104358;28;20436;-65
2022/09/12 10:31:11;;;;;;;11.80;9.20;;;18.20;99.90;;;;;;5106748;28;20458;-65
2022/09/12 10:33:46;;;;;;;11.80;9.10;;;18.20;99.90;;;;;;5107141;28;20458;-64
2022/09/12 10:36:17;;;;;;;10.63;8.40;;;18.20;99.90;;;;;;5120537;28;20448;-65
2022/09/12 10:38:53;;;;;;;18.10;9.93;;;18.10;99.90;;;;;;5104561;28;20472;-65
2022/09/12 10:41:26;;;;;;;12.47;9.50;;;18.00;99.90;;;;;;5114213;28;20470;-65
2022/09/12 10:44:08;;;;;;;12.53;10.20;;;17.90;99.90;;;;;;5108922;28;20972;-64
2022/09/12 10:46:41;;;;;;;12.73;9.07;;;17.80;99.90;;;;;;5106323;28;20437;-64
2022/09/12 10:49:21;;;;;;;14.37;9.67;;;17.70;99.90;;;;;;5114814;28;20433;-65
2022/09/12 10:51:53;;;;;;;12.33;10.07;;;17.70;99.90;;;;;;5108799;28;20424;-65
2022/09/12 10:54:26;;;;;;;12.30;8.50;;;17.70;99.90;;;;;;5107761;28;20478;-65
2022/09/12 10:57:27;;;;;;;18.07;9.90;;;17.70;99.90;;;;;;5107975;28;20436;-66
2022/09/12 11:00:13;;;;;;;12.83;9.00;;;17.60;99.90;;;;;;5073556;28;20487;-66
2022/09/12 11:03:03;;;;;;;12.77;9.50;;;17.50;99.90;;;;;;5100172;28;20482;-64
2022/09/12 11:05:53;;;;;;;13.83;9.37;;;17.60;99.90;;;;;;5109111;28;20485;-65
2022/09/12 11:08:49;;;;;;;20.47;10.30;;;17.60;99.90;;;;;;5103494;28;20434;-65
2022/09/12 11:11:37;;;;;;;15.67;9.50;;;17.50;99.90;;;;;;5115232;28;20451;-65
2022/09/12 11:14:37;;;;;;;10.17;9.03;;;17.40;99.90;;;;;;5102918;28;20462;-64
2022/09/12 11:17:20;;;;;;;13.70;9.83;;;17.40;99.90;;;;;;5101671;28;20519;-64
2022/09/12 11:20:28;;;;;;;12.13;9.03;;;17.40;99.90;;;;;;5101395;28;20559;-65
2022/09/12 11:23:40;;;;;;;14.10;8.93;;;17.40;99.90;;;;;;5114842;28;20458;-64
2022/09/12 11:26:26;;;;;;;13.77;9.27;;;17.30;99.90;;;;;;5091380;28;20425;-64
2022/09/12 11:29:07;;;;;;;12.50;9.83;;;17.40;99.90;;;;;;5107903;28;22097;-64
2022/09/12 11:32:07;;;;;;;12.50;9.27;;;17.50;99.90;;;;;;5112227;28;21360;-65
2022/09/12 11:34:53;;;;;;;12.77;9.67;;;17.60;99.90;;;;;;5103424;28;20449;-64
2022/09/12 11:37:49;;;;;;;10.73;8.93;;;17.60;99.90;;;;;;5107326;28;20508;-65
2022/09/12 11:40:29;;;;;;;12.53;8.30;;;17.60;99.90;;;;;;5106074;28;20482;-65
2022/09/12 11:43:06;;;;;;;18.37;11.13;;;17.50;99.90;;;;;;5105690;28;20504;-64
2022/09/12 11:45:41;;;;;;;13.53;10.17;;;17.50;99.90;;;;;;5105170;28;20506;-66
2022/09/12 11:48:16;;;;;;;13.67;9.07;;;17.50;99.90;;;;;;5088950;28;20466;-65
2022/09/12 11:50:47;;;;;;;16.90;10.47;;;17.50;99.90;;;;;;5104620;28;20429;-65
2022/09/12 11:53:25;;;;;;;12.33;10.07;;;17.50;99.90;;;;;;5108443;28;20425;-65
2022/09/12 11:56:02;;;;;;;13.03;9.87;;;17.50;99.90;;;;;;5105004;28;20502;-65
2022/09/12 11:58:35;;;;;;;13.63;9.60;;;17.50;99.90;;;;;;5107246;28;20580;-65
2022/09/12 12:01:16;;;;;;;13.40;9.77;;;17.40;99.90;;;;;;5119813;28;20483;-66
2022/09/12 12:03:48;;;;;;;11.97;9.00;;;17.40;99.90;;;;;;5119518;28;20496;-65
2022/09/12 12:06:22;;;;;;;11.53;9.50;;;17.40;99.90;;;;;;5123335;28;20446;-64
2022/09/12 12:08:55;;;;;;;13.30;8.97;;;17.50;99.90;;;;;;5109825;28;20429;-64
2022/09/12 12:11:30;;;;;;;13.07;9.37;;;17.50;99.90;;;;;;5123518;28;20729;-65
2022/09/12 12:14:05;;;;;;;14.30;9.73;;;17.50;99.90;;;;;;5115253;28;20432;-65
2022/09/12 12:16:39;;;;;;;14.87;9.83;;;17.50;99.90;;;;;;5110903;28;20561;-65
2022/09/12 12:19:33;;;;;;;13.73;9.80;;;17.50;99.90;;;;;;5103397;28;20505;-64
2022/09/12 12:22:17;;;;;;;13.53;9.50;;;17.50;99.90;;;;;;5109658;28;20470;-65
2022/09/12 12:25:08;;;;;;;12.83;9.93;;;17.60;99.90;;;;;;5103889;28;20513;-64
2022/09/12 12:27:52;;;;;;;17.13;10.00;;;17.60;99.90;;;;;;5092832;28;20459;-64
2022/09/12 12:31:01;;;;;;;12.50;9.13;;;17.60;99.90;;;;;;5105959;28;20498;-66
2022/09/12 12:33:55;;;;;;;12.70;8.90;;;17.70;99.90;;;;;;5097901;28;20475;-64
2022/09/12 12:36:41;;;;;;;16.33;10.43;;;17.70;99.90;;;;;;5105982;28;20528;-64
2022/09/12 12:39:48;;;;;;;17.20;10.70;;;17.60;99.90;;;;;;5099106;28;20478;-64
2022/09/12 12:43:06;;;;;;;12.40;9.27;;;17.60;99.90;;;;;;5103706;28;20472;-64
2022/09/12 12:46:05;;;;;;;14.20;10.03;;;17.60;99.90;;;;;;5107031;28;20433;-64
2022/09/12 12:48:52;;;;;;;14.77;10.83;;;17.60;99.90;;;;;;5108563;28;20466;-65
2022/09/12 12:51:48;;;;;;;13.77;10.60;;;17.60;99.90;;;;;;5111004;28;20440;-65
2022/09/12 12:54:50;;;;;;;13.67;10.10;;;17.60;99.90;;;;;;5100790;28;20447;-64
2022/09/12 12:57:49;;;;;;;13.67;10.30;;;17.60;99.90;;;;;;5089648;28;20934;-65
2022/09/12 13:00:35;;;;;;;12.57;9.10;;;17.60;99.90;;;;;;5103716;28;20494;-64
2022/09/12 13:03:23;;;;;;;11.43;9.43;;;17.70;99.90;;;;;;5101458;28;20533;-65
2022/09/12 13:06:01;;;;;;;13.47;9.27;;;17.60;99.90;;;;;;5098119;28;20446;-64
2022/09/12 13:08:34;;;;;;;19.53;11.47;;;17.60;99.90;;;;;;5106027;27;20522;-65
2022/09/12 13:11:09;;;;;;;15.47;10.80;;;17.50;99.90;;;;;;5112431;28;20490;-65
2022/09/12 13:13:45;;;;;;;17.27;11.03;;;17.40;99.90;;;;;;5102053;28;20429;-65
2022/09/12 13:16:31;;;;;;;13.93;10.33;;;17.50;99.90;;;;;;5102588;28;20450;-65
2022/09/12 13:19:07;;;;;;;16.00;12.07;;;17.50;99.90;;;;;;5104849;28;20543;-65